Adin, CA

9:27 PM PDT on July 24, 2014 (GMT -0700)
KCAMCART2 Elev 4265 ft | 41.23 °N, 121.22 °W | Change Station

Current weather conditions updated 5 minutes ago

Clear
Clear
67.3 °F
Feels Like 67.3 °F
N
0.0
Wind Variable Wind from North
Gusts 0.0 mph

Tomorrow is forecast to be nearly the same temperature as today.

Today
High -- | Low -- °F
--% Chance of Precip.
Yesterday
High -- | Low -- °F
Precip. -- in
5:51 AM 8:28 PM
Waning Crescent, 3% visible
Pressure 29.97 in
Visibility 10.0 miles
Clouds Clear
Dew Point 7 °F
Humidity 10%
Rainfall 0.00 in
Snow Depth 0 in
UV 0 out of 12
Pollen 6.50 out of 12
Air Quality Not available.
Flu Activity Not available.
METAR KAAT 250355Z AUTO 03003KT 10SM CLR 21/M11 A3007 RMK AO2 SLP148 T02061106

More Conditions Fewer Conditions

Pressure 29.97 in
Visibility 10.0 miles
Clouds Clear
Dew Point 7 °F
Humidity 10%
Rainfall 0.00 in
Snow Depth 0 in
UV 0 out of 12
Pollen 6.50 out of 12
Air Quality Not available.
Flu Activity Not available.
METAR KAAT 250355Z AUTO 03003KT 10SM CLR 21/M11 A3007 RMK AO2 SLP148 T02061106

More Conditions Fewer Conditions

10-Day Weather Forecast

Almanac

Astronomy

Jul. 24, 2014 Rise Set
Actual Time 5:51 AM PDT 8:28 PM PDT
Civil Twilight 5:19 AM PDT 8:59 PM PDT
Nautical Twilight 4:40 AM PDT 9:39 PM PDT
Astronomical Twilight 3:55 AM PDT 10:24 PM PDT
Moon 4:04 AM PDT (7/24) 6:46 PM PDT (7/24)
Length of Visible Light 15h 40m
Length of Day
14h 36m
Tomorrow will be 1m 50s shorter.
Waning Crescent, 3% of the Moon is Illuminated
Jul 25
Waning Crescent
Jul 26
New
Aug 3
First Quarter
Aug 10
Full
Aug 17
Last Quarter

Today's Extremes

State Highs State Lows

Community

WunderPhotos

Upload Photos

1,737,242 photos uploaded!

Nearby

Snow Depth

Station Depth Elevation
Adin Mountain 0 in 6200 ft
Cedar Pass 0 in 7100 ft
CSS Lab 1 in 6900 ft
Echo Peak 0 in 7800 ft
Blue Lakes 0 in 8000 ft

Earthquake Activity

City Distance Mag. Time & Date
Lakeview, Oregon 81 miles 2.5 9:31 AM PDT
2014-07-19
Lakeview, Oregon 83 miles 2.6 2:52 PM PDT
2014-07-18
Minimum magnitude displayed is 2.5.

Coastal Water Temperatures

Place Temperature
No Stations Reporting

Nearby Weather Stations

Station Location Temp. Heat Index Dew Point Humidity Wind Precip. Elev Updated Type
Lookout, CA 67.3 °F - 7 °F 10% North  at  0.0 mph 0.00 in / hr 4265 ft 9:21 PM PDT Normal
HADS PIT RIVER BELOW MUCK VALLEY POWE CA, Nubieber, CA 77 °F 75 °F - - North  at  - 0.00 in / hr 4120 ft 8:00 PM PDT MADIS
RAWS CANBY CA, Canby, CA 67 °F - 16 °F 14% North  at  0 mph 0.00 in / hr 4314 ft 9:02 PM PDT MADIS
RAWS MDF06 PORTABLE CA, Canby, CA 69 °F - 19 °F 15% North  at  0 mph 0.00 in / hr 5044 ft 8:25 PM PDT MADIS
RAWS RUSH CREEK CA, Adin, CA 66 °F - 14 °F 13% NNW  at  5 mph 0.00 in / hr 5542 ft 9:03 PM PDT MADIS
ADIN MOUNTAIN, Modoc National Forest, CA 59.0 °F - - - North  at  - - / hr 6167 ft 8:45 PM PDT Normal

Show More Stations Show Fewer Stations